sensor_id;sensor_type;location;lat;lon;timestamp;temperature;humidity
54034;DHT22;39952;40.122;18.294;2022-10-03T00:01:36;22.80;62.10
54034;DHT22;39952;40.122;18.294;2022-10-03T00:04:53;22.80;62.40
54034;DHT22;39952;40.122;18.294;2022-10-03T00:08:14;22.60;62.30
54034;DHT22;39952;40.122;18.294;2022-10-03T00:11:30;22.60;62.80
54034;DHT22;39952;40.122;18.294;2022-10-03T00:14:45;22.70;62.30
54034;DHT22;39952;40.122;18.294;2022-10-03T00:18:02;22.80;62.40
54034;DHT22;39952;40.122;18.294;2022-10-03T00:21:23;22.50;62.30
54034;DHT22;39952;40.122;18.294;2022-10-03T00:24:43;22.30;63.00
54034;DHT22;39952;40.122;18.294;2022-10-03T00:28:09;22.10;63.50
54034;DHT22;39952;40.122;18.294;2022-10-03T00:31:23;22.00;63.80
54034;DHT22;39952;40.122;18.294;2022-10-03T00:34:42;21.80;64.10
54034;DHT22;39952;40.122;18.294;2022-10-03T00:38:05;22.00;64.00
54034;DHT22;39952;40.122;18.294;2022-10-03T00:41:38;22.10;63.40
54034;DHT22;39952;40.122;18.294;2022-10-03T00:56:35;22.30;62.60
54034;DHT22;39952;40.122;18.294;2022-10-03T01:00:00;22.50;61.70
54034;DHT22;39952;40.122;18.294;2022-10-03T01:03:27;22.30;62.30
54034;DHT22;39952;40.122;18.294;2022-10-03T01:06:40;22.50;61.90
54034;DHT22;39952;40.122;18.294;2022-10-03T01:10:00;22.50;62.10
54034;DHT22;39952;40.122;18.294;2022-10-03T01:13:21;22.50;61.70
54034;DHT22;39952;40.122;18.294;2022-10-03T01:16:36;22.50;61.70
54034;DHT22;39952;40.122;18.294;2022-10-03T01:20:03;22.40;61.80
54034;DHT22;39952;40.122;18.294;2022-10-03T01:23:28;22.50;62.10
54034;DHT22;39952;40.122;18.294;2022-10-03T01:26:51;22.20;62.60
54034;DHT22;39952;40.122;18.294;2022-10-03T01:30:02;22.40;62.30
54034;DHT22;39952;40.122;18.294;2022-10-03T01:33:31;22.40;62.60
54034;DHT22;39952;40.122;18.294;2022-10-03T01:36:46;22.30;62.60
54034;DHT22;39952;40.122;18.294;2022-10-03T01:39:58;22.40;62.50
54034;DHT22;39952;40.122;18.294;2022-10-03T01:43:14;22.20;62.80
54034;DHT22;39952;40.122;18.294;2022-10-03T01:46:36;21.90;63.20
54034;DHT22;39952;40.122;18.294;2022-10-03T01:49:47;22.00;63.30
54034;DHT22;39952;40.122;18.294;2022-10-03T01:53:03;22.00;63.40
54034;DHT22;39952;40.122;18.294;2022-10-03T01:56:20;22.20;63.00
54034;DHT22;39952;40.122;18.294;2022-10-03T01:59:36;22.10;62.60
54034;DHT22;39952;40.122;18.294;2022-10-03T02:02:53;22.10;63.20
54034;DHT22;39952;40.122;18.294;2022-10-03T02:06:13;22.20;62.80
54034;DHT22;39952;40.122;18.294;2022-10-03T02:09:32;22.30;62.60
54034;DHT22;39952;40.122;18.294;2022-10-03T02:12:47;22.30;63.00
54034;DHT22;39952;40.122;18.294;2022-10-03T02:16:01;22.40;62.80
54034;DHT22;39952;40.122;18.294;2022-10-03T02:19:17;22.40;62.20
54034;DHT22;39952;40.122;18.294;2022-10-03T02:22:31;22.30;62.30
54034;DHT22;39952;40.122;18.294;2022-10-03T02:25:52;22.00;63.30
54034;DHT22;39952;40.122;18.294;2022-10-03T02:29:24;21.50;64.10
54034;DHT22;39952;40.122;18.294;2022-10-03T02:33:17;21.30;64.30
54034;DHT22;39952;40.122;18.294;2022-10-03T02:47:55;21.00;66.00
54034;DHT22;39952;40.122;18.294;2022-10-03T02:51:20;21.20;65.30
54034;DHT22;39952;40.122;18.294;2022-10-03T02:54:57;21.40;65.00
54034;DHT22;39952;40.122;18.294;2022-10-03T02:58:29;21.50;64.50
54034;DHT22;39952;40.122;18.294;2022-10-03T03:02:08;21.70;64.00
54034;DHT22;39952;40.122;18.294;2022-10-03T03:05:36;21.70;64.30
54034;DHT22;39952;40.122;18.294;2022-10-03T03:09:17;21.80;63.70
54034;DHT22;39952;40.122;18.294;2022-10-03T03:27:32;21.70;64.60
54034;DHT22;39952;40.122;18.294;2022-10-03T03:30:46;21.80;64.60
54034;DHT22;39952;40.122;18.294;2022-10-03T03:34:02;21.90;64.10
54034;DHT22;39952;40.122;18.294;2022-10-03T03:37:19;21.90;64.30
54034;DHT22;39952;40.122;18.294;2022-10-03T03:40:39;21.90;64.10
54034;DHT22;39952;40.122;18.294;2022-10-03T03:44:08;22.00;64.10
54034;DHT22;39952;40.122;18.294;2022-10-03T03:47:29;21.90;64.60
54034;DHT22;39952;40.122;18.294;2022-10-03T03:51:01;22.20;64.00
54034;DHT22;39952;40.122;18.294;2022-10-03T03:54:38;22.30;63.50
54034;DHT22;39952;40.122;18.294;2022-10-03T03:58:12;22.40;62.90
54034;DHT22;39952;40.122;18.294;2022-10-03T04:01:39;22.30;62.90
54034;DHT22;39952;40.122;18.294;2022-10-03T04:05:01;22.20;62.80
54034;DHT22;39952;40.122;18.294;2022-10-03T04:08:37;22.20;62.70
54034;DHT22;39952;40.122;18.294;2022-10-03T04:11:54;22.10;62.60
54034;DHT22;39952;40.122;18.294;2022-10-03T04:15:19;22.00;62.60
54034;DHT22;39952;40.122;18.294;2022-10-03T04:18:46;21.80;63.10
54034;DHT22;39952;40.122;18.294;2022-10-03T04:22:24;21.80;63.30
54034;DHT22;39952;40.122;18.294;2022-10-03T04:25:48;21.70;63.90
54034;DHT22;39952;40.122;18.294;2022-10-03T04:29:24;21.90;63.30
54034;DHT22;39952;40.122;18.294;2022-10-03T04:32:48;21.40;64.60
54034;DHT22;39952;40.122;18.294;2022-10-03T04:36:37;21.40;65.30
54034;DHT22;39952;40.122;18.294;2022-10-03T04:39:55;21.50;64.90
54034;DHT22;39952;40.122;18.294;2022-10-03T04:43:10;21.30;65.20
54034;DHT22;39952;40.122;18.294;2022-10-03T04:46:26;21.10;66.10
54034;DHT22;39952;40.122;18.294;2022-10-03T04:49:38;21.00;66.40
54034;DHT22;39952;40.122;18.294;2022-10-03T04:52:55;21.30;66.20
54034;DHT22;39952;40.122;18.294;2022-10-03T04:56:28;21.40;64.80
54034;DHT22;39952;40.122;18.294;2022-10-03T04:59:46;21.60;64.60
54034;DHT22;39952;40.122;18.294;2022-10-03T05:03:03;21.70;64.00
54034;DHT22;39952;40.122;18.294;2022-10-03T05:06:27;21.80;63.80
54034;DHT22;39952;40.122;18.294;2022-10-03T05:09:44;21.60;64.00
54034;DHT22;39952;40.122;18.294;2022-10-03T05:12:58;21.70;64.10
54034;DHT22;39952;40.122;18.294;2022-10-03T05:16:22;21.60;64.10
54034;DHT22;39952;40.122;18.294;2022-10-03T05:19:52;21.80;64.10
54034;DHT22;39952;40.122;18.294;2022-10-03T05:23:16;21.80;63.60
54034;DHT22;39952;40.122;18.294;2022-10-03T05:26:29;21.50;64.60
54034;DHT22;39952;40.122;18.294;2022-10-03T05:29:57;21.70;64.20
54034;DHT22;39952;40.122;18.294;2022-10-03T05:33:14;21.80;63.70
54034;DHT22;39952;40.122;18.294;2022-10-03T05:36:31;22.00;63.30
54034;DHT22;39952;40.122;18.294;2022-10-03T05:39:44;22.20;63.00
54034;DHT22;39952;40.122;18.294;2022-10-03T05:43:02;22.20;62.70
54034;DHT22;39952;40.122;18.294;2022-10-03T05:46:20;22.30;62.50
54034;DHT22;39952;40.122;18.294;2022-10-03T05:49:46;22.50;61.70
54034;DHT22;39952;40.122;18.294;2022-10-03T05:53:09;22.90;60.30
54034;DHT22;39952;40.122;18.294;2022-10-03T05:56:22;23.10;59.40
54034;DHT22;39952;40.122;18.294;2022-10-03T05:59:59;23.10;59.30
54034;DHT22;39952;40.122;18.294;2022-10-03T06:07:04;23.20;59.10
54034;DHT22;39952;40.122;18.294;2022-10-03T06:10:38;23.40;58.80
54034;DHT22;39952;40.122;18.294;2022-10-03T06:14:01;23.60;58.30
54034;DHT22;39952;40.122;18.294;2022-10-03T06:25:09;23.80;57.70
54034;DHT22;39952;40.122;18.294;2022-10-03T06:32:31;23.90;57.30
54034;DHT22;39952;40.122;18.294;2022-10-03T06:36:21;24.10;56.60
54034;DHT22;39952;40.122;18.294;2022-10-03T06:43:43;24.20;56.50
54034;DHT22;39952;40.122;18.294;2022-10-03T06:47:17;24.30;55.90
54034;DHT22;39952;40.122;18.294;2022-10-03T06:50:45;24.30;56.00
54034;DHT22;39952;40.122;18.294;2022-10-03T06:57:47;24.30;56.60
54034;DHT22;39952;40.122;18.294;2022-10-03T07:04:43;24.30;56.80
54034;DHT22;39952;40.122;18.294;2022-10-03T07:15:47;24.30;57.20
54034;DHT22;39952;40.122;18.294;2022-10-03T07:19:28;24.30;57.30
54034;DHT22;39952;40.122;18.294;2022-10-03T07:23:07;24.30;57.60
54034;DHT22;39952;40.122;18.294;2022-10-03T07:30:13;24.00;59.00
54034;DHT22;39952;40.122;18.294;2022-10-03T07:37:13;24.10;59.20
54034;DHT22;39952;40.122;18.294;2022-10-03T07:41:15;24.20;59.40
54034;DHT22;39952;40.122;18.294;2022-10-03T07:44:59;24.00;60.30
54034;DHT22;39952;40.122;18.294;2022-10-03T07:55:50;24.30;59.10
54034;DHT22;39952;40.122;18.294;2022-10-03T08:06:18;24.30;59.80
54034;DHT22;39952;40.122;18.294;2022-10-03T08:09:53;24.80;58.30
54034;DHT22;39952;40.122;18.294;2022-10-03T08:13:23;25.20;56.80
54034;DHT22;39952;40.122;18.294;2022-10-03T08:16:59;25.20;57.10
54034;DHT22;39952;40.122;18.294;2022-10-03T08:20:32;25.50;56.30
54034;DHT22;39952;40.122;18.294;2022-10-03T08:42:53;25.60;55.50
54034;DHT22;39952;40.122;18.294;2022-10-03T08:46:22;25.90;55.10
54034;DHT22;39952;40.122;18.294;2022-10-03T08:49:57;26.30;53.30
54034;DHT22;39952;40.122;18.294;2022-10-03T08:53:48;26.20;53.60
54034;DHT22;39952;40.122;18.294;2022-10-03T08:57:10;26.20;54.10
54034;DHT22;39952;40.122;18.294;2022-10-03T09:00:28;26.40;53.70
54034;DHT22;39952;40.122;18.294;2022-10-03T09:07:37;30.50;42.80
54034;DHT22;39952;40.122;18.294;2022-10-03T09:11:19;31.60;40.50
54034;DHT22;39952;40.122;18.294;2022-10-03T09:14:49;30.10;43.50
54034;DHT22;39952;40.122;18.294;2022-10-03T09:18:36;29.50;44.90
54034;DHT22;39952;40.122;18.294;2022-10-03T09:40:45;31.00;40.90
54034;DHT22;39952;40.122;18.294;2022-10-03T09:44:20;31.20;39.90
54034;DHT22;39952;40.122;18.294;2022-10-03T09:51:17;30.10;42.60
54034;DHT22;39952;40.122;18.294;2022-10-03T09:55:00;30.10;41.90
54034;DHT22;39952;40.122;18.294;2022-10-03T09:58:39;31.10;40.50
54034;DHT22;39952;40.122;18.294;2022-10-03T10:01:55;32.60;37.50
54034;DHT22;39952;40.122;18.294;2022-10-03T10:05:33;32.90;36.50
54034;DHT22;39952;40.122;18.294;2022-10-03T10:12:44;34.30;33.70
54034;DHT22;39952;40.122;18.294;2022-10-03T10:16:31;34.60;32.10
54034;DHT22;39952;40.122;18.294;2022-10-03T10:23:42;33.60;33.80
54034;DHT22;39952;40.122;18.294;2022-10-03T10:27:19;32.30;36.00
54034;DHT22;39952;40.122;18.294;2022-10-03T10:30:49;30.00;40.20
54034;DHT22;39952;40.122;18.294;2022-10-03T10:34:17;29.50;41.90
54034;DHT22;39952;40.122;18.294;2022-10-03T10:37:58;28.50;43.90
54034;DHT22;39952;40.122;18.294;2022-10-03T10:41:34;28.60;43.70
54034;DHT22;39952;40.122;18.294;2022-10-03T10:56:32;28.20;45.50
54034;DHT22;39952;40.122;18.294;2022-10-03T11:00:16;28.50;44.60
54034;DHT22;39952;40.122;18.294;2022-10-03T11:07:11;28.40;44.90
54034;DHT22;39952;40.122;18.294;2022-10-03T11:10:33;28.30;45.50
54034;DHT22;39952;40.122;18.294;2022-10-03T11:14:23;28.30;43.70
54034;DHT22;39952;40.122;18.294;2022-10-03T11:29:12;27.40;44.70
54034;DHT22;39952;40.122;18.294;2022-10-03T11:39:43;28.30;40.80
54034;DHT22;39952;40.122;18.294;2022-10-03T11:42:59;28.50;39.00
54034;DHT22;39952;40.122;18.294;2022-10-03T11:46:21;28.30;40.40
54034;DHT22;39952;40.122;18.294;2022-10-03T11:49:50;27.90;39.70
54034;DHT22;39952;40.122;18.294;2022-10-03T11:53:35;28.30;38.30
54034;DHT22;39952;40.122;18.294;2022-10-03T11:56:44;28.50;38.00
54034;DHT22;39952;40.122;18.294;2022-10-03T11:59:56;29.00;38.80
54034;DHT22;39952;40.122;18.294;2022-10-03T12:03:19;29.30;38.00
54034;DHT22;39952;40.122;18.294;2022-10-03T12:06:50;28.70;38.20
54034;DHT22;39952;40.122;18.294;2022-10-03T12:10:31;28.90;38.10
54034;DHT22;39952;40.122;18.294;2022-10-03T12:13:47;28.40;38.70
54034;DHT22;39952;40.122;18.294;2022-10-03T12:17:04;27.80;38.80
54034;DHT22;39952;40.122;18.294;2022-10-03T12:20:18;28.30;39.70
54034;DHT22;39952;40.122;18.294;2022-10-03T12:23:46;29.10;38.70
54034;DHT22;39952;40.122;18.294;2022-10-03T12:27:03;29.40;38.30
54034;DHT22;39952;40.122;18.294;2022-10-03T12:30:14;29.30;35.50
54034;DHT22;39952;40.122;18.294;2022-10-03T12:33:44;29.30;35.70
54034;DHT22;39952;40.122;18.294;2022-10-03T12:37:06;29.30;36.10
54034;DHT22;39952;40.122;18.294;2022-10-03T12:40:23;29.20;36.20
54034;DHT22;39952;40.122;18.294;2022-10-03T12:43:45;29.10;36.40
54034;DHT22;39952;40.122;18.294;2022-10-03T12:47:02;28.80;37.60
54034;DHT22;39952;40.122;18.294;2022-10-03T12:50:21;28.30;38.80
54034;DHT22;39952;40.122;18.294;2022-10-03T12:53:47;28.40;40.10
54034;DHT22;39952;40.122;18.294;2022-10-03T12:57:13;28.40;41.30
54034;DHT22;39952;40.122;18.294;2022-10-03T13:00:32;27.80;42.30
54034;DHT22;39952;40.122;18.294;2022-10-03T13:03:44;27.00;41.90
54034;DHT22;39952;40.122;18.294;2022-10-03T13:07:18;26.30;44.00
54034;DHT22;39952;40.122;18.294;2022-10-03T13:10:35;26.50;46.00
54034;DHT22;39952;40.122;18.294;2022-10-03T13:14:00;26.80;45.50
54034;DHT22;39952;40.122;18.294;2022-10-03T13:17:17;26.30;45.80
54034;DHT22;39952;40.122;18.294;2022-10-03T13:20:29;26.50;46.10
54034;DHT22;39952;40.122;18.294;2022-10-03T13:23:44;26.10;47.50
54034;DHT22;39952;40.122;18.294;2022-10-03T13:26:58;26.20;47.70
54034;DHT22;39952;40.122;18.294;2022-10-03T13:30:17;26.30;44.90
54034;DHT22;39952;40.122;18.294;2022-10-03T13:33:28;26.20;45.80
54034;DHT22;39952;40.122;18.294;2022-10-03T13:36:39;26.30;43.60
54034;DHT22;39952;40.122;18.294;2022-10-03T13:39:51;26.20;44.00
54034;DHT22;39952;40.122;18.294;2022-10-03T13:43:01;26.00;44.80
54034;DHT22;39952;40.122;18.294;2022-10-03T13:46:14;26.00;45.00
54034;DHT22;39952;40.122;18.294;2022-10-03T13:49:26;25.80;46.20
54034;DHT22;39952;40.122;18.294;2022-10-03T13:52:41;25.70;46.90
54034;DHT22;39952;40.122;18.294;2022-10-03T13:55:53;25.40;48.50
54034;DHT22;39952;40.122;18.294;2022-10-03T13:59:12;25.10;49.90
54034;DHT22;39952;40.122;18.294;2022-10-03T14:02:40;25.30;50.20
54034;DHT22;39952;40.122;18.294;2022-10-03T14:06:02;25.60;50.70
54034;DHT22;39952;40.122;18.294;2022-10-03T14:09:33;25.50;50.20
54034;DHT22;39952;40.122;18.294;2022-10-03T14:12:58;25.30;49.10
54034;DHT22;39952;40.122;18.294;2022-10-03T14:16:14;25.00;51.00
54034;DHT22;39952;40.122;18.294;2022-10-03T14:19:31;25.20;51.00
54034;DHT22;39952;40.122;18.294;2022-10-03T14:26:18;25.20;51.40
54034;DHT22;39952;40.122;18.294;2022-10-03T14:29:32;25.10;52.00
54034;DHT22;39952;40.122;18.294;2022-10-03T14:32:49;25.20;52.00
54034;DHT22;39952;40.122;18.294;2022-10-03T14:36:10;25.00;52.00
54034;DHT22;39952;40.122;18.294;2022-10-03T14:39:31;25.10;52.00
54034;DHT22;39952;40.122;18.294;2022-10-03T14:42:56;24.80;52.80
54034;DHT22;39952;40.122;18.294;2022-10-03T14:46:05;24.80;52.40
54034;DHT22;39952;40.122;18.294;2022-10-03T14:49:19;24.40;53.20
54034;DHT22;39952;40.122;18.294;2022-10-03T14:52:53;24.60;53.30
54034;DHT22;39952;40.122;18.294;2022-10-03T14:56:08;24.60;54.10
54034;DHT22;39952;40.122;18.294;2022-10-03T14:59:19;24.40;54.50
54034;DHT22;39952;40.122;18.294;2022-10-03T15:02:29;24.60;54.60
54034;DHT22;39952;40.122;18.294;2022-10-03T15:05:53;24.80;54.60
54034;DHT22;39952;40.122;18.294;2022-10-03T15:09:07;24.80;54.60
54034;DHT22;39952;40.122;18.294;2022-10-03T15:12:17;24.50;55.20
54034;DHT22;39952;40.122;18.294;2022-10-03T15:15:28;24.40;55.80
54034;DHT22;39952;40.122;18.294;2022-10-03T15:18:37;24.40;56.10
54034;DHT22;39952;40.122;18.294;2022-10-03T15:21:45;24.50;56.30
54034;DHT22;39952;40.122;18.294;2022-10-03T15:24:58;24.50;56.30
54034;DHT22;39952;40.122;18.294;2022-10-03T15:28:09;24.40;57.20
54034;DHT22;39952;40.122;18.294;2022-10-03T15:31:21;24.50;56.90
54034;DHT22;39952;40.122;18.294;2022-10-03T15:34:33;24.30;57.50
54034;DHT22;39952;40.122;18.294;2022-10-03T15:37:44;24.20;57.60
54034;DHT22;39952;40.122;18.294;2022-10-03T15:41:06;23.90;58.30
54034;DHT22;39952;40.122;18.294;2022-10-03T15:44:17;24.20;58.20
54034;DHT22;39952;40.122;18.294;2022-10-03T15:47:27;24.30;57.80
54034;DHT22;39952;40.122;18.294;2022-10-03T15:50:37;24.20;57.90
54034;DHT22;39952;40.122;18.294;2022-10-03T15:53:47;24.30;57.50
54034;DHT22;39952;40.122;18.294;2022-10-03T15:56:58;24.30;57.60
54034;DHT22;39952;40.122;18.294;2022-10-03T16:00:07;24.10;57.90
54034;DHT22;39952;40.122;18.294;2022-10-03T16:03:28;23.70;58.70
54034;DHT22;39952;40.122;18.294;2022-10-03T16:06:42;23.70;59.10
54034;DHT22;39952;40.122;18.294;2022-10-03T16:09:58;23.80;58.80
54034;DHT22;39952;40.122;18.294;2022-10-03T16:13:21;23.90;58.40
54034;DHT22;39952;40.122;18.294;2022-10-03T16:16:35;24.10;58.00
54034;DHT22;39952;40.122;18.294;2022-10-03T16:19:50;24.20;57.80
54034;DHT22;39952;40.122;18.294;2022-10-03T16:23:00;24.10;57.90
54034;DHT22;39952;40.122;18.294;2022-10-03T16:26:13;24.20;57.70
54034;DHT22;39952;40.122;18.294;2022-10-03T16:29:27;24.20;57.70
54034;DHT22;39952;40.122;18.294;2022-10-03T16:32:41;23.90;58.50
54034;DHT22;39952;40.122;18.294;2022-10-03T16:35:52;23.90;58.60
54034;DHT22;39952;40.122;18.294;2022-10-03T16:39:00;23.70;59.30
54034;DHT22;39952;40.122;18.294;2022-10-03T16:42:12;23.70;59.30
54034;DHT22;39952;40.122;18.294;2022-10-03T16:45:28;23.80;59.10
54034;DHT22;39952;40.122;18.294;2022-10-03T16:48:41;24.00;58.40
54034;DHT22;39952;40.122;18.294;2022-10-03T16:52:09;24.00;58.20
54034;DHT22;39952;40.122;18.294;2022-10-03T16:55:21;23.90;58.30
54034;DHT22;39952;40.122;18.294;2022-10-03T16:58:31;23.90;58.50
54034;DHT22;39952;40.122;18.294;2022-10-03T17:01:41;23.80;58.60
54034;DHT22;39952;40.122;18.294;2022-10-03T17:04:53;23.90;58.60
54034;DHT22;39952;40.122;18.294;2022-10-03T17:08:01;23.80;58.90
54034;DHT22;39952;40.122;18.294;2022-10-03T17:11:23;23.70;59.30
54034;DHT22;39952;40.122;18.294;2022-10-03T17:14:35;23.40;60.30
54034;DHT22;39952;40.122;18.294;2022-10-03T17:17:48;23.30;60.90
54034;DHT22;39952;40.122;18.294;2022-10-03T17:21:06;23.30;60.80
54034;DHT22;39952;40.122;18.294;2022-10-03T17:24:19;23.20;61.20
54034;DHT22;39952;40.122;18.294;2022-10-03T17:27:31;23.30;61.40
54034;DHT22;39952;40.122;18.294;2022-10-03T17:30:45;23.30;61.10
54034;DHT22;39952;40.122;18.294;2022-10-03T17:34:02;23.60;60.30
54034;DHT22;39952;40.122;18.294;2022-10-03T17:37:33;23.70;60.10
54034;DHT22;39952;40.122;18.294;2022-10-03T17:40:57;23.30;60.80
54034;DHT22;39952;40.122;18.294;2022-10-03T17:44:18;23.30;61.10
54034;DHT22;39952;40.122;18.294;2022-10-03T17:47:32;23.30;61.10
54034;DHT22;39952;40.122;18.294;2022-10-03T17:50:51;23.30;61.10
54034;DHT22;39952;40.122;18.294;2022-10-03T17:54:04;23.30;60.80
54034;DHT22;39952;40.122;18.294;2022-10-03T17:57:19;23.40;60.60
54034;DHT22;39952;40.122;18.294;2022-10-03T18:00:32;23.40;60.90
54034;DHT22;39952;40.122;18.294;2022-10-03T18:03:46;23.40;60.60
54034;DHT22;39952;40.122;18.294;2022-10-03T18:06:55;23.40;60.70
54034;DHT22;39952;40.122;18.294;2022-10-03T18:10:05;23.50;60.30
54034;DHT22;39952;40.122;18.294;2022-10-03T18:13:24;23.50;60.10
54034;DHT22;39952;40.122;18.294;2022-10-03T18:16:34;23.40;60.10
54034;DHT22;39952;40.122;18.294;2022-10-03T18:20:02;23.30;60.60
54034;DHT22;39952;40.122;18.294;2022-10-03T18:23:19;23.10;61.40
54034;DHT22;39952;40.122;18.294;2022-10-03T18:26:43;23.00;61.50
54034;DHT22;39952;40.122;18.294;2022-10-03T18:29:55;22.90;61.70
54034;DHT22;39952;40.122;18.294;2022-10-03T18:33:05;23.00;61.50
54034;DHT22;39952;40.122;18.294;2022-10-03T18:36:19;23.10;61.30
54034;DHT22;39952;40.122;18.294;2022-10-03T18:39:31;23.20;61.20
54034;DHT22;39952;40.122;18.294;2022-10-03T18:42:39;23.20;61.20
54034;DHT22;39952;40.122;18.294;2022-10-03T18:45:47;23.20;61.10
54034;DHT22;39952;40.122;18.294;2022-10-03T18:49:00;23.10;61.50
54034;DHT22;39952;40.122;18.294;2022-10-03T18:52:32;23.20;60.90
54034;DHT22;39952;40.122;18.294;2022-10-03T18:55:47;23.10;61.40
54034;DHT22;39952;40.122;18.294;2022-10-03T18:59:06;23.20;60.90
54034;DHT22;39952;40.122;18.294;2022-10-03T19:02:20;23.20;61.10
54034;DHT22;39952;40.122;18.294;2022-10-03T19:05:31;23.10;61.20
54034;DHT22;39952;40.122;18.294;2022-10-03T19:08:50;23.10;61.00
54034;DHT22;39952;40.122;18.294;2022-10-03T19:12:05;23.10;61.30
54034;DHT22;39952;40.122;18.294;2022-10-03T19:15:18;23.00;61.30
54034;DHT22;39952;40.122;18.294;2022-10-03T19:18:32;23.10;61.40
54034;DHT22;39952;40.122;18.294;2022-10-03T19:21:46;23.20;61.00
54034;DHT22;39952;40.122;18.294;2022-10-03T19:24:53;23.10;61.30
54034;DHT22;39952;40.122;18.294;2022-10-03T19:28:13;23.30;60.80
54034;DHT22;39952;40.122;18.294;2022-10-03T19:31:25;23.20;60.90
54034;DHT22;39952;40.122;18.294;2022-10-03T19:34:37;23.30;60.80
54034;DHT22;39952;40.122;18.294;2022-10-03T19:37:45;23.30;60.50
54034;DHT22;39952;40.122;18.294;2022-10-03T19:40:57;23.30;60.70
54034;DHT22;39952;40.122;18.294;2022-10-03T19:44:07;23.30;60.90
54034;DHT22;39952;40.122;18.294;2022-10-03T19:47:21;23.40;60.70
54034;DHT22;39952;40.122;18.294;2022-10-03T19:50:37;23.40;60.60
54034;DHT22;39952;40.122;18.294;2022-10-03T19:53:44;23.50;60.20
54034;DHT22;39952;40.122;18.294;2022-10-03T19:56:52;23.40;60.40
54034;DHT22;39952;40.122;18.294;2022-10-03T20:00:04;23.30;60.40
54034;DHT22;39952;40.122;18.294;2022-10-03T20:03:19;23.40;60.50
54034;DHT22;39952;40.122;18.294;2022-10-03T20:06:48;23.30;60.30
54034;DHT22;39952;40.122;18.294;2022-10-03T20:09:57;23.30;60.50
54034;DHT22;39952;40.122;18.294;2022-10-03T20:13:07;23.20;60.40
54034;DHT22;39952;40.122;18.294;2022-10-03T20:16:19;23.30;60.30
54034;DHT22;39952;40.122;18.294;2022-10-03T20:19:28;23.30;60.50
54034;DHT22;39952;40.122;18.294;2022-10-03T20:22:38;23.20;60.30
54034;DHT22;39952;40.122;18.294;2022-10-03T20:25:54;23.00;60.30
54034;DHT22;39952;40.122;18.294;2022-10-03T20:29:22;23.00;59.70
54034;DHT22;39952;40.122;18.294;2022-10-03T20:32:31;22.80;59.90
54034;DHT22;39952;40.122;18.294;2022-10-03T20:35:50;22.80;59.40
54034;DHT22;39952;40.122;18.294;2022-10-03T20:39:10;22.60;59.60
54034;DHT22;39952;40.122;18.294;2022-10-03T20:42:20;22.80;59.20
54034;DHT22;39952;40.122;18.294;2022-10-03T20:45:31;22.80;58.90
54034;DHT22;39952;40.122;18.294;2022-10-03T20:48:53;22.90;58.80
54034;DHT22;39952;40.122;18.294;2022-10-03T20:52:05;22.90;58.80
54034;DHT22;39952;40.122;18.294;2022-10-03T20:55:17;22.70;59.50
54034;DHT22;39952;40.122;18.294;2022-10-03T20:58:28;22.70;59.50
54034;DHT22;39952;40.122;18.294;2022-10-03T21:01:36;22.70;59.10
54034;DHT22;39952;40.122;18.294;2022-10-03T21:04:50;22.70;59.00
54034;DHT22;39952;40.122;18.294;2022-10-03T21:07:59;22.80;59.10
54034;DHT22;39952;40.122;18.294;2022-10-03T21:11:16;22.80;58.30
54034;DHT22;39952;40.122;18.294;2022-10-03T21:14:26;22.60;59.40
54034;DHT22;39952;40.122;18.294;2022-10-03T21:17:34;22.70;59.00
54034;DHT22;39952;40.122;18.294;2022-10-03T21:20:44;22.70;58.80
54034;DHT22;39952;40.122;18.294;2022-10-03T21:23:55;22.80;59.10
54034;DHT22;39952;40.122;18.294;2022-10-03T21:27:11;22.80;58.60
54034;DHT22;39952;40.122;18.294;2022-10-03T21:30:20;22.80;58.80
54034;DHT22;39952;40.122;18.294;2022-10-03T21:33:29;22.70;58.80
54034;DHT22;39952;40.122;18.294;2022-10-03T21:36:49;22.70;59.30
54034;DHT22;39952;40.122;18.294;2022-10-03T21:40:11;22.60;59.40
54034;DHT22;39952;40.122;18.294;2022-10-03T21:43:32;22.50;59.70
54034;DHT22;39952;40.122;18.294;2022-10-03T21:46:50;22.40;60.20
54034;DHT22;39952;40.122;18.294;2022-10-03T21:50:04;22.40;60.00
54034;DHT22;39952;40.122;18.294;2022-10-03T21:53:23;22.40;60.10
54034;DHT22;39952;40.122;18.294;2022-10-03T21:56:43;22.30;60.40
54034;DHT22;39952;40.122;18.294;2022-10-03T22:00:03;22.20;60.60
54034;DHT22;39952;40.122;18.294;2022-10-03T22:03:19;22.30;60.40
54034;DHT22;39952;40.122;18.294;2022-10-03T22:06:31;22.30;60.50
54034;DHT22;39952;40.122;18.294;2022-10-03T22:09:47;22.30;60.50
54034;DHT22;39952;40.122;18.294;2022-10-03T22:12:57;22.30;60.30
54034;DHT22;39952;40.122;18.294;2022-10-03T22:16:10;22.10;60.80
54034;DHT22;39952;40.122;18.294;2022-10-03T22:19:25;21.80;61.60
54034;DHT22;39952;40.122;18.294;2022-10-03T22:22:48;21.60;62.40
54034;DHT22;39952;40.122;18.294;2022-10-03T22:26:06;21.80;62.20
54034;DHT22;39952;40.122;18.294;2022-10-03T22:29:20;21.90;61.80
54034;DHT22;39952;40.122;18.294;2022-10-03T22:36:27;22.10;61.50
54034;DHT22;39952;40.122;18.294;2022-10-03T22:39:35;21.90;62.00
54034;DHT22;39952;40.122;18.294;2022-10-03T22:42:46;22.00;61.80
54034;DHT22;39952;40.122;18.294;2022-10-03T22:45:55;22.10;61.40
54034;DHT22;39952;40.122;18.294;2022-10-03T22:49:07;22.00;61.70
54034;DHT22;39952;40.122;18.294;2022-10-03T22:52:20;21.80;62.50
54034;DHT22;39952;40.122;18.294;2022-10-03T22:55:30;22.00;61.80
54034;DHT22;39952;40.122;18.294;2022-10-03T23:04:35;21.70;62.30
54034;DHT22;39952;40.122;18.294;2022-10-03T23:07:57;21.40;62.60
54034;DHT22;39952;40.122;18.294;2022-10-03T23:11:12;21.20;63.20
54034;DHT22;39952;40.122;18.294;2022-10-03T23:14:24;21.30;62.20
54034;DHT22;39952;40.122;18.294;2022-10-03T23:17:56;21.80;60.70
54034;DHT22;39952;40.122;18.294;2022-10-03T23:21:09;21.90;59.20
54034;DHT22;39952;40.122;18.294;2022-10-03T23:24:24;22.00;58.10
54034;DHT22;39952;40.122;18.294;2022-10-03T23:27:56;22.20;58.00
54034;DHT22;39952;40.122;18.294;2022-10-03T23:34:43;22.50;56.90
54034;DHT22;39952;40.122;18.294;2022-10-03T23:37:52;22.50;55.60
54034;DHT22;39952;40.122;18.294;2022-10-03T23:41:00;22.40;54.20
54034;DHT22;39952;40.122;18.294;2022-10-03T23:44:38;22.30;54.70
54034;DHT22;39952;40.122;18.294;2022-10-03T23:51:06;22.40;54.40
54034;DHT22;39952;40.122;18.294;2022-10-03T23:54:15;22.30;53.10
54034;DHT22;39952;40.122;18.294;2022-10-03T23:57:29;22.30;53.90
